Notice: Undefined index: language in /home/u908952976/domains/airgaviota-va.com/public_html/vam/index.php on line 25
AirGaviota-VA

... VIRTUAL FLIGHT...OUR PASSION



 FLIGHT DETAILS
Pilot: GVT470 George Fleites F. Aircraft: BOEING 737-66NNGX JANET AIRLINES (URS FEDERAL SERVICES) Distance: 528NM
Departure MUHA Arrival MUGT Duration 01:23
Validation Validated Type Charter Tail Number GV-AAB
ZFW 53134 Block Fuel/Initial FOB 4,258/0 Flight Fuel 3,786
Passengers 182 Cargo 287 Alternate MUCU
Departure Time Cruise Speed Flight Level 350
Flight Type IFR Aircraft Type A-320 Weight Unit Kg
Date 25-10-2020 Pilot Comments Network IVAO
Crashed No Validator Comments Flight Rating -5070

 ROUTE
ROUTE KAVUL4A APRIK J3 UCU UGT
REMARKS
 FLIGHT FAILURES
Crashed OK Beacon off & Engine Running Fail KIAS Above 250 below 10000 FT Fail
Lights OFF below 10000 FT OK Lights ON above 10000 FT Fail Stall OK
Overspeed OK Flight paused OK Refueling Fail
Slew detected OK Taxi & Taxi lights off Fail Take off & lights off OK
Landing & lights off OK Landed in not planned airport OK Taxi Speed OK
Wrong altimeter in Take off OK Wrong altimeter in Landing OK
 LANDING ANALYSIS
Landing wind 112º/12 kt Landing heading 261
Landing VS: -150.71 ft/min Landing IAS: 138.12 kt
Landing Force G 1.6 G Landing Bank 0.3
Landing Pitch 4.6 Landing Flaps 8
Navigation Lights ON Landing Lights ON
Beacon Lights ON Strobe Lights OFF
 FLIGHT MAP
 ALTITUDE CHART
 FLIGHT FINANCIAL REPORT
 MAIN EVENTS
DATE EVENTIASALTITUDE
2020-10-25 10:55:15 SIM ACARS version 1.4.10218
2020-10-25 10:55:15 BOARDING0218
2020-10-25 10:55:15 STARTING ENGINE 1 0218
2020-10-25 10:55:15 STARTING ENGINE 2 0218
2020-10-25 10:55:15 BEACON LIGHT OFF & ENGINE ON0218
2020-10-25 11:02:15 REFUELING -58.45%0218
2020-10-25 11:02:55 REFUELING 58.40%0218
2020-10-25 11:03:15 REFUELING -58.40%3218
2020-10-25 11:03:35 REFUELING 58.37%5218
2020-10-25 11:04:35 REFUELING -58.34%5218
2020-10-25 11:04:55 REFUELING 58.31%8218
2020-10-25 11:06:35 REFUELING -58.25%7218
2020-10-25 11:07:15 REFUELING 58.20%8218
2020-10-25 11:07:33 FLAPS SET TO POSITION 18218
2020-10-25 11:07:41 FLAPS SET TO POSITION 28218
2020-10-25 11:07:45 FLAPS SET TO POSITION 38218
2020-10-25 11:08:15 REFUELING -58.17%6218
2020-10-25 11:08:34 PUSHBACK6218
2020-10-25 11:08:55 REFUELING 58.12%1218
2020-10-25 11:09:16 REFUELING -58.12%0218
2020-10-25 11:09:35 REFUELING 58.09%0218
2020-10-25 11:10:01 TAXI TO THE RWY 2218
2020-10-25 11:10:01 TAXING WITH TAXI LIGHTS OFF2218
2020-10-25 11:10:15 REFUELING -58.06%21218
2020-10-25 11:10:35 REFUELING 57.93%34218
2020-10-25 11:11:35 REFUELING -57.88%21218
2020-10-25 11:11:55 REFUELING 57.80%25218
2020-10-25 11:12:15 REFUELING -57.80%32218
2020-10-25 11:12:35 REFUELING 57.72%31218
2020-10-25 11:13:35 REFUELING -57.65%37218
2020-10-25 11:14:15 REFUELING 57.55%8218
2020-10-25 11:15:35 REFUELING -57.50%0218
2020-10-25 11:15:55 REFUELING 57.46%0218
2020-10-25 11:16:35 REFUELING -57.44%7218
2020-10-25 11:17:15 REFUELING 57.38%8218
2020-10-25 11:18:35 REFUELING -57.27%33218
2020-10-25 11:18:39 ROLLING FOR TAKE OFF45218
2020-10-25 11:18:55 REFUELING 57.04%93218
2020-10-25 11:19:15 REFUELING -57.04%147220
2020-10-25 11:19:17 TAKE OFF152220
2020-10-25 11:19:35 GEAR UP166442
2020-10-25 11:19:35 GEAR DOWN166445
2020-10-25 11:19:35 REFUELING 56.60%166445
2020-10-25 11:19:35 GEAR UP166454
2020-10-25 11:20:35 REFUELING -56.17%1772488
2020-10-25 11:20:49 FLAPS SET TO POSITION 41802862
2020-10-25 11:20:51 FLAPS SET TO POSITION 31812932
2020-10-25 11:20:55 FLAPS SET TO POSITION 21813060
2020-10-25 11:20:58 FLAPS SET TO POSITION 11823151
2020-10-25 11:21:06 FLAPS SET TO POSITION 01953173
2020-10-25 11:21:27 DESCEND2562637
2020-10-25 11:21:29 IAS ABOVE 250 KNOTS BELOW 10000 ft2612590
2020-10-25 11:21:35 REFUELING 55.43%2722535
2020-10-25 11:21:57 CLIMBING2613676
2020-10-25 11:22:15 REFUELING -55.25%2514661
2020-10-25 11:22:35 REFUELING 54.91%2535415
2020-10-25 11:23:55 REFUELING -54.42%2548556
2020-10-25 11:24:15 REFUELING 54.11%2549310
2020-10-25 11:24:48 LIGHTS ON ABOVE 10000 ft25710501
2020-10-25 11:25:35 REFUELING -53.65%28611413
2020-10-25 11:25:55 REFUELING 53.37%29111968
2020-10-25 11:26:15 REFUELING -53.37%29312607
2020-10-25 11:26:35 REFUELING 53.09%29313289
2020-10-25 11:27:15 REFUELING -52.95%29414620
2020-10-25 11:27:55 REFUELING 52.54%29215879
2020-10-25 11:29:35 REFUELING -52.02%29318663
2020-10-25 11:29:55 REFUELING 51.78%29319217
2020-10-25 11:32:35 REFUELING -50.97%29322948
2020-10-25 11:33:15 REFUELING 50.64%29323740
2020-10-25 11:34:35 REFUELING -50.32%29325214
2020-10-25 11:35:15 REFUELING 50.02%29425895
2020-10-25 11:36:35 REFUELING -49.72%29327197
2020-10-25 11:36:55 REFUELING 49.53%29327487
2020-10-25 11:37:35 REFUELING -49.43%29328082
2020-10-25 11:37:55 REFUELING 49.24%29328350
2020-10-25 11:38:15 REFUELING -49.24%29328627
2020-10-25 11:38:35 REFUELING 49.05%29328892
2020-10-25 11:39:35 REFUELING -48.86%29229617
2020-10-25 11:40:15 REFUELING 48.59%28830302
2020-10-25 11:41:35 REFUELING -48.32%27332471
2020-10-25 11:42:15 REFUELING 48.06%26433464
2020-10-25 11:43:15 REFUELING -47.90%25734127
2020-10-25 11:43:55 REFUELING 47.65%26534473
2020-10-25 11:44:37 CRUISE26234964
2020-10-25 11:46:35 REFUELING -47.15%25834971
2020-10-25 11:47:35 REFUELING 46.90%25834970
2020-10-25 11:48:15 REFUELING -46.84%25734970
2020-10-25 11:49:15 REFUELING 46.60%25734971
2020-10-25 11:49:55 REFUELING -46.54%25734970
2020-10-25 11:50:55 REFUELING 46.28%25734970
2020-10-25 11:51:55 REFUELING -46.16%25734972
2020-10-25 11:52:15 REFUELING 46.03%25734972
2020-10-25 11:55:35 REFUELING -45.45%25734991
2020-10-25 11:56:15 REFUELING 45.28%25734990
2020-10-25 11:57:35 REFUELING -45.09%25735017
2020-10-25 11:57:55 REFUELING 44.97%25735018
2020-10-25 11:58:35 REFUELING -44.90%25735025
2020-10-25 11:59:15 REFUELING 44.72%25735024
2020-10-25 12:00:55 REFUELING -44.47%25735022
2020-10-25 12:01:35 REFUELING 44.28%25735023
2020-10-25 12:02:35 REFUELING -44.15%25735016
2020-10-25 12:03:15 REFUELING 43.96%25735012
2020-10-25 12:04:35 REFUELING -43.77%25734987
2020-10-25 12:04:55 REFUELING 43.65%25734982
2020-10-25 12:05:35 REFUELING -43.58%25634985
2020-10-25 12:05:55 REFUELING 43.46%25634985
2020-10-25 12:06:15 REFUELING -43.46%25534982
2020-10-25 12:06:35 REFUELING 43.35%25434976
2020-10-25 12:06:55 REFUELING -43.35%25434975
2020-10-25 12:07:15 REFUELING 43.26%24634969
2020-10-25 12:07:35 REFUELING -43.26%23634962
2020-10-25 12:08:35 REFUELING 43.08%23134976
2020-10-25 12:09:55 REFUELING -42.90%23134974
2020-10-25 12:10:15 REFUELING 42.78%23134976
2020-10-25 12:11:15 REFUELING -42.67%23134991
2020-10-25 12:11:35 REFUELING 42.55%23134990
2020-10-25 12:12:15 REFUELING -42.49%23134993
2020-10-25 12:13:35 REFUELING 42.20%23134998
2020-10-25 12:14:35 REFUELING -42.08%23134986
2020-10-25 12:15:35 REFUELING 41.85%23134987
2020-10-25 12:16:35 REFUELING -41.73%23034991
2020-10-25 12:17:07 DESCEND25033567
2020-10-25 12:17:15 REFUELING 41.61%25433179
2020-10-25 12:17:55 REFUELING -41.59%25332039
2020-10-25 12:18:15 REFUELING 41.55%25431418
2020-10-25 12:18:35 REFUELING -41.55%25430852
2020-10-25 12:18:55 REFUELING 41.51%25430198
2020-10-25 12:19:35 REFUELING -41.49%25429100
2020-10-25 12:19:55 REFUELING 41.45%25428534
2020-10-25 12:20:15 REFUELING -41.45%24928135
2020-10-25 12:20:35 REFUELING 41.41%24327839
2020-10-25 12:21:35 REFUELING -41.37%24326173
2020-10-25 12:22:35 REFUELING 41.28%23224961
2020-10-25 12:23:35 REFUELING -41.24%21424051
2020-10-25 12:24:15 REFUELING 41.18%20623349
2020-10-25 12:25:15 REFUELING -41.14%23321081
2020-10-25 12:25:55 REFUELING 41.08%23320131
2020-10-25 12:26:35 REFUELING -41.06%23319180
2020-10-25 12:26:55 REFUELING 41.02%23318706
2020-10-25 12:27:15 REFUELING -41.02%23318231
2020-10-25 12:27:35 REFUELING 40.98%23317753
2020-10-25 12:28:35 REFUELING -40.94%23316180
2020-10-25 12:29:35 REFUELING 40.85%23314695
2020-10-25 12:30:15 REFUELING -40.83%23013792
2020-10-25 12:31:15 REFUELING 40.75%23312160
2020-10-25 12:32:35 REFUELING -40.69%2409783
2020-10-25 12:32:55 REFUELING 40.65%2349435
2020-10-25 12:35:35 REFUELING -40.50%2335642
2020-10-25 12:35:55 REFUELING 40.46%2335157
2020-10-25 12:36:15 REFUELING -40.46%2305000
2020-10-25 12:36:35 REFUELING 40.38%2274973
2020-10-25 12:36:47 CRUISE2204965
2020-10-25 12:37:35 REFUELING -40.31%2064964
2020-10-25 12:38:15 REFUELING 40.14%2084925
2020-10-25 12:38:37 DESCEND2074620
2020-10-25 12:38:55 REFUELING -40.11%2034228
2020-10-25 12:39:55 REFUELING 40.02%1953019
2020-10-25 12:39:58 FLAPS SET TO POSITION 11962936
2020-10-25 12:40:05 FLAPS SET TO POSITION 22002700
2020-10-25 12:40:09 FLAPS SET TO POSITION 32022580
2020-10-25 12:41:07 GEAR DOWN1661898
2020-10-25 12:41:08 FLAPS SET TO POSITION 41651898
2020-10-25 12:41:26 FLAPS SET TO POSITION 51511915
2020-10-25 12:41:27 CRUISE1501914
2020-10-25 12:41:28 FLAPS SET TO POSITION 61501913
2020-10-25 12:41:32 FLAPS SET TO POSITION 71481915
2020-10-25 12:41:37 FLAPS SET TO POSITION 81451936
2020-10-25 12:42:57 DESCEND1431728
2020-10-25 12:44:15 REFUELING -39.06%142569
2020-10-25 12:44:55 REFUELING 38.71%150176
2020-10-25 12:45:09 LANDING13865
2020-10-25 12:45:40 FLAPS SET TO POSITION 75464
2020-10-25 12:45:45 FLAPS SET TO POSITION 64464
2020-10-25 12:45:48 FLAPS SET TO POSITION 53164
2020-10-25 12:45:51 FLAPS SET TO POSITION 43064
2020-10-25 12:45:54 FLAPS SET TO POSITION 32964
2020-10-25 12:45:55 REFUELING -38.62%2964
2020-10-25 12:45:58 FLAPS SET TO POSITION 22164
2020-10-25 12:45:59 TAXI TO THE GATE2064
2020-10-25 12:46:02 FLAPS SET TO POSITION 1964
2020-10-25 12:46:10 FLAPS SET TO POSITION 0064
2020-10-25 12:46:46 STOPPING ENGINE 2 064
2020-10-25 12:46:47 STOPPING ENGINE 1 064
2020-10-25 12:46:55 REFUELING 38.52%064
2020-10-25 12:47:35 REFUELING -38.52%064
2020-10-25 12:48:15 REFUELING 38.51%064
2020-10-25 12:48:35 REFUELING -38.51%064
2020-10-25 12:48:55 REFUELING 38.51%064
2020-10-25 12:49:35 REFUELING -38.51%064
2020-10-25 12:50:15 REFUELING 38.50%064
2020-10-25 12:50:35 REFUELING -38.50%064
2020-10-25 12:50:55 REFUELING 38.50%064
2020-10-25 12:51:35 REFUELING -38.49%064
2020-10-25 12:52:35 REFUELING 38.49%064
2020-10-25 12:53:35 REFUELING -38.48%064
2020-10-25 12:53:55 REFUELING 38.48%064
2020-10-25 12:54:35 REFUELING -38.47%064
2020-10-25 12:55:16 REFUELING 38.47%064
2020-10-25 12:56:55 REFUELING -38.46%064
2020-10-25 12:57:35 REFUELING 38.45%064
2020-10-25 12:58:35 REFUELING -38.45%064
2020-10-25 12:59:15 REFUELING 38.44%064
2020-10-25 13:00:35 REFUELING -38.44%064
2020-10-25 13:00:55 REFUELING 38.43%064
2020-10-25 13:01:35 REFUELING -38.43%064
2020-10-25 13:01:55 REFUELING 38.43%064
2020-10-25 13:02:15 REFUELING -38.43%064
2020-10-25 13:02:35 REFUELING 38.42%064
2020-10-25 13:03:16 REFUELING -38.42%064
2020-10-25 13:04:15 REFUELING 38.41%064
2020-10-25 13:05:35 REFUELING -38.40%064
2020-10-25 13:06:15 REFUELING 38.40%064
2020-10-25 13:06:55 REFUELING -38.40%064
2020-10-25 13:07:55 REFUELING 38.39%064
2020-10-25 13:08:35 REFUELING -38.38%064
2020-10-25 13:08:55 REFUELING 38.38%064
2020-10-25 13:09:15 REFUELING -38.38%064
2020-10-25 13:09:35 REFUELING 38.38%064
2020-10-25 13:10:55 REFUELING -38.37%064
2020-10-25 13:11:35 REFUELING 38.36%064
2020-10-25 13:12:35 REFUELING -38.36%064
2020-10-25 13:13:15 REFUELING 38.35%064
2020-10-25 13:13:55 REFUELING -38.35%064
2020-10-25 13:14:15 REFUELING 38.35%064
2020-10-25 13:14:35 REFUELING -38.35%064
2020-10-25 13:14:55 REFUELING 38.35%064
2020-10-25 13:15:35 REFUELING -38.35%064
2020-10-25 13:15:55 REFUELING 38.35%064
2020-10-25 13:16:15 REFUELING -38.35%064
2020-10-25 13:16:35 REFUELING 38.35%064
2020-10-25 13:17:35 REFUELING -38.35%064
2020-10-25 13:18:35 REFUELING 38.35%064
2020-10-25 13:19:35 REFUELING -38.35%064
2020-10-25 13:20:15 REFUELING 38.35%064
2020-10-25 13:21:35 REFUELING -38.35%064
2020-10-25 13:21:55 REFUELING 38.35%064
2020-10-25 13:22:15 REFUELING -38.35%064
2020-10-25 13:22:55 REFUELING 38.35%064
2020-10-25 13:23:15 REFUELING -38.35%064
2020-10-25 13:23:35 REFUELING 38.35%064
2020-10-25 13:24:55 REFUELING -38.35%064
2020-10-25 13:25:35 REFUELING 38.35%064
2020-10-25 13:26:37 REFUELING -38.35%064
2020-10-25 13:27:18 REFUELING 38.35%064
2020-10-25 13:28:37 REFUELING -38.35%064
2020-10-25 13:28:57 REFUELING 38.35%064
2020-10-25 13:29:37 REFUELING -38.35%064
2020-10-25 13:30:18 REFUELING 38.35%064
2020-10-25 13:31:37 REFUELING -38.35%064
2020-10-25 13:32:18 REFUELING 38.35%064
2020-10-25 13:33:57 REFUELING -38.35%064
2020-10-25 13:34:18 REFUELING 38.35%064
2020-10-25 13:35:57 REFUELING -38.35%064
2020-10-25 13:36:57 REFUELING 38.35%064
 ACARS DATA
DATE IASGSALTITUDEFUEL CONSUMED OATFLIGHT STATUS
2020-10-25 10:56:1500217927BOARDING
2020-10-25 10:57:15002171827BOARDING
2020-10-25 10:58:15002172727BOARDING
2020-10-25 10:59:15002173627BOARDING
2020-10-25 11:00:15002174527BOARDING
2020-10-25 11:01:15002175427BOARDING
2020-10-25 11:02:15002176227BOARDING
2020-10-25 11:03:15302177127BOARDING
2020-10-25 11:04:15402171226927BOARDING
2020-10-25 11:05:15602179028BOARDING
2020-10-25 11:06:155021710028BOARDING
2020-10-25 11:07:157021711028BOARDING
2020-10-25 11:08:156021712028BOARDING
2020-10-25 11:09:150221712928BOARDING
2020-10-25 11:10:15212721715528TAXI TO THE RWY
2020-10-25 11:11:15162421717728TAXI TO THE RWY
2020-10-25 11:12:15313621720228TAXI TO THE RWY
2020-10-25 11:13:15394321722628TAXI TO THE RWY
2020-10-25 11:14:157021724528TAXI TO THE RWY
2020-10-25 11:15:150021725828TAXI TO THE RWY
2020-10-25 11:16:150021727028TAXI TO THE RWY
2020-10-25 11:17:157021728228TAXI TO THE RWY
2020-10-25 11:18:15512171226928TAXI TO THE RWY
2020-10-25 11:19:1514715021939828TAXI TO THE RWY
2020-10-25 11:20:15205193138853324CLIMBING
2020-10-25 11:21:15216212301065321CLIMBING
2020-10-25 11:22:15251248466176218CLIMBING
2020-10-25 11:23:15253265699986615CLIMBING
2020-10-25 11:24:15253278930996511CLIMBING
2020-10-25 11:25:152753121097610608CLIMBING
2020-10-25 11:26:152933411260711506CLIMBING
2020-10-25 11:27:152933551461912382CLIMBING
2020-10-25 11:28:152883671660113210CLIMBING
2020-10-25 11:29:15293386181291401-2CLIMBING
2020-10-25 11:30:15293398197451477-5CLIMBING
2020-10-25 11:31:15293409211971551-8CLIMBING
2020-10-25 11:32:15293420225351621-10CLIMBING
2020-10-25 11:33:15293431237391689-12CLIMBING
2020-10-25 11:34:15293440248781755-14CLIMBING
2020-10-25 11:35:15293448258941819-17CLIMBING
2020-10-25 11:36:15293454268891882-19CLIMBING
2020-10-25 11:37:15293461277721943-21CLIMBING
2020-10-25 11:38:15293466286272002-23CLIMBING
2020-10-25 11:39:15293472293352061-25CLIMBING
2020-10-25 11:40:15287471303022118-28CLIMBING
2020-10-25 11:41:15277450319762174-32CLIMBING
2020-10-25 11:42:15264436334632228-35CLIMBING
2020-10-25 11:43:15256442341272281-37CLIMBING
2020-10-25 11:44:15261441349012332-39CLIMBING
2020-10-25 11:45:15247443349602373-39CRUISE
2020-10-25 11:46:15256457349702420-39CRUISE
2020-10-25 11:47:15259457349702459-39CRUISE
2020-10-25 11:48:15256453349702497-39CRUISE
2020-10-25 11:49:15257451349702535-39CRUISE
2020-10-25 11:50:15257450349712574-39CRUISE
2020-10-25 11:51:15257450349722614-39CRUISE
2020-10-25 11:52:15257450349712654-39CRUISE
2020-10-25 11:53:15257450349752692-39CRUISE
2020-10-25 11:54:15257449349812732-39CRUISE
2020-10-25 11:55:15257449349962771-39CRUISE
2020-10-25 11:56:15257449349892811-39CRUISE
2020-10-25 11:57:15257446350142849-39CRUISE
2020-10-25 11:58:15257446350192888-39CRUISE
2020-10-25 11:59:15257445350242927-39CRUISE
2020-10-25 12:00:152574453502412270-39CRUISE
2020-10-25 12:01:15257446350223006-39CRUISE
2020-10-25 12:02:15256446350223045-39CRUISE
2020-10-25 12:03:15257447350123086-39CRUISE
2020-10-25 12:04:15256449349953125-39CRUISE
2020-10-25 12:05:15257449349823164-39CRUISE
2020-10-25 12:06:15254445349813201-39CRUISE
2020-10-25 12:07:15245432349683233-39CRUISE
2020-10-25 12:08:15229407349703257-39CRUISE
2020-10-25 12:09:15230409349733295-39CRUISE
2020-10-25 12:10:15230409349763332-39CRUISE
2020-10-25 12:11:15230409349913369-39CRUISE
2020-10-25 12:12:15230409349933405-39CRUISE
2020-10-25 12:13:15230408349973442-39CRUISE
2020-10-25 12:14:15230408349973479-39CRUISE
2020-10-25 12:15:15230408349863515-39CRUISE
2020-10-25 12:16:15230408349893552-39CRUISE
2020-10-25 12:17:15253429331783576-34DESCEND
2020-10-25 12:18:15254418314183589-30DESCEND
2020-10-25 12:19:15254410296543602-26DESCEND
2020-10-25 12:20:15249393281353615-23DESCEND
2020-10-25 12:21:15243377266963628-19DESCEND
2020-10-25 12:22:15233360254043640-16DESCEND
2020-10-25 12:23:15222339242523653-14DESCEND
2020-10-25 12:24:15206310233483666-12DESCEND
2020-10-25 12:25:15233330210813679-8DESCEND
2020-10-25 12:26:15232319196573692-5DESCEND
2020-10-25 12:27:15232308182303705-3DESCEND
2020-10-25 12:28:152383151649737180DESCEND
2020-10-25 12:29:152323001522937300DESCEND
2020-10-25 12:30:152302821379237433DESCEND
2020-10-25 12:31:152322801215937565DESCEND
2020-10-25 12:32:152342671042737698DESCEND
2020-10-25 12:33:152322618955378211DESCEND
2020-10-25 12:34:152322567609379513DESCEND
2020-10-25 12:35:1523225461211227015DESCEND
2020-10-25 12:36:152292485000382417DESCEND
2020-10-25 12:37:152082274954384817CRUISE
2020-10-25 12:38:152082264924388417CRUISE
2020-10-25 12:39:152012063742390019DESCEND
2020-10-25 12:40:152042072419391221DESCEND
2020-10-25 12:41:151601621907393222DESCEND
2020-10-25 12:42:151411412010401322CRUISE
2020-10-25 12:43:151491471599408422DESCEND
2020-10-25 12:44:15141137568413123DESCEND
2020-10-25 12:45:1511911364419723LANDED
2020-10-25 12:46:150363421523TAXI TO THE GATE
2020-10-25 12:47:150063422223TAXI TO THE GATE
2020-10-25 12:48:150063422423TAXI TO THE GATE
2020-10-25 12:49:150063422523TAXI TO THE GATE
2020-10-25 12:50:150063422623TAXI TO THE GATE
2020-10-25 12:51:150063422823TAXI TO THE GATE
2020-10-25 12:52:150063422923TAXI TO THE GATE
2020-10-25 12:53:150063423123TAXI TO THE GATE
2020-10-25 12:54:150063423223TAXI TO THE GATE
2020-10-25 12:55:150063423323TAXI TO THE GATE
2020-10-25 12:56:150063423523TAXI TO THE GATE
2020-10-25 12:57:150063423623TAXI TO THE GATE
2020-10-25 12:58:150063423723TAXI TO THE GATE
2020-10-25 12:59:150063423923TAXI TO THE GATE
2020-10-25 13:00:150063424023TAXI TO THE GATE
2020-10-25 13:01:150063424123TAXI TO THE GATE
2020-10-25 13:02:150063424323TAXI TO THE GATE
2020-10-25 13:03:150063424423TAXI TO THE GATE
2020-10-25 13:04:150063424523TAXI TO THE GATE
2020-10-25 13:05:150063424723TAXI TO THE GATE
2020-10-25 13:06:150063424823TAXI TO THE GATE
2020-10-25 13:07:150063424923TAXI TO THE GATE
2020-10-25 13:08:150063425123TAXI TO THE GATE
2020-10-25 13:09:150063425223TAXI TO THE GATE
2020-10-25 13:10:150063425323TAXI TO THE GATE
2020-10-25 13:11:150063425523TAXI TO THE GATE
2020-10-25 13:12:150063425623TAXI TO THE GATE
2020-10-25 13:13:150063425723TAXI TO THE GATE
2020-10-25 13:14:150063425823TAXI TO THE GATE
2020-10-25 13:15:150063425823TAXI TO THE GATE
2020-10-25 13:16:150063425823TAXI TO THE GATE
2020-10-25 13:17:150063425823TAXI TO THE GATE
2020-10-25 13:18:150063425823TAXI TO THE GATE
2020-10-25 13:19:150063425823TAXI TO THE GATE
2020-10-25 13:20:150063425823TAXI TO THE GATE
2020-10-25 13:21:150063425823TAXI TO THE GATE
2020-10-25 13:22:150063425823TAXI TO THE GATE
2020-10-25 13:23:150063425823TAXI TO THE GATE
2020-10-25 13:24:150063425823TAXI TO THE GATE
2020-10-25 13:25:150063425823TAXI TO THE GATE
2020-10-25 13:26:170063425823TAXI TO THE GATE
2020-10-25 13:27:170063425823TAXI TO THE GATE
2020-10-25 13:28:170063425823TAXI TO THE GATE
2020-10-25 13:29:170063425823TAXI TO THE GATE
2020-10-25 13:30:170063425823TAXI TO THE GATE
2020-10-25 13:31:170063425823TAXI TO THE GATE
2020-10-25 13:32:170063425823TAXI TO THE GATE
2020-10-25 13:33:1700631227023TAXI TO THE GATE
2020-10-25 13:34:1700631227023TAXI TO THE GATE
2020-10-25 13:35:1700631227023TAXI TO THE GATE
2020-10-25 13:36:1700631227023TAXI TO THE GATE
2020-10-25 13:37:170063425814TAXI TO THE GATE
2020-10-25 13:38:170063425814TAXI TO THE GATE
2020-10-25 13:39:170063425814TAXI TO THE GATE
2020-10-25 13:40:170063425814TAXI TO THE GATE
2020-10-25 13:41:170063425814TAXI TO THE GATE
2020-10-25 13:42:170063425814TAXI TO THE GATE
2020-10-25 13:43:170063425814TAXI TO THE GATE
2020-10-25 13:44:170063425814TAXI TO THE GATE
2020-10-25 13:45:170063425814TAXI TO THE GATE
2020-10-25 13:46:170063425814TAXI TO THE GATE
2020-10-25 13:47:170063425814TAXI TO THE GATE
2020-10-25 13:48:170063425814TAXI TO THE GATE
2020-10-25 13:49:170063425814TAXI TO THE GATE
2020-10-25 13:50:170063425814TAXI TO THE GATE
2020-10-25 13:51:170063425814TAXI TO THE GATE
2020-10-25 13:52:170063425814TAXI TO THE GATE
2020-10-25 13:53:170063425814TAXI TO THE GATE
2020-10-25 13:54:170063425814TAXI TO THE GATE
2020-10-25 13:55:170063425814TAXI TO THE GATE
2020-10-25 13:56:170063425814TAXI TO THE GATE
2020-10-25 13:57:170063425814TAXI TO THE GATE
2020-10-25 13:58:170063425814TAXI TO THE GATE
2020-10-25 13:59:170063425814TAXI TO THE GATE
2020-10-25 14:00:170063425814TAXI TO THE GATE
2020-10-25 14:01:170063425814TAXI TO THE GATE
2020-10-25 14:02:170063425814TAXI TO THE GATE
2020-10-25 14:03:170063425814TAXI TO THE GATE
2020-10-25 14:04:170063425814TAXI TO THE GATE
2020-10-25 14:05:170063425814TAXI TO THE GATE
2020-10-25 14:06:170063425814TAXI TO THE GATE
2020-10-25 14:07:170063425814TAXI TO THE GATE
2020-10-25 14:08:170063425814TAXI TO THE GATE
2020-10-25 14:09:170063425814TAXI TO THE GATE
2020-10-25 14:10:170063425814TAXI TO THE GATE
2020-10-25 14:11:170063425814TAXI TO THE GATE
2020-10-25 14:12:170063425814TAXI TO THE GATE
2020-10-25 14:13:170063425814TAXI TO THE GATE
2020-10-25 14:14:170063425814TAXI TO THE GATE
2020-10-25 14:15:170063425814TAXI TO THE GATE
2020-10-25 14:16:170063425814TAXI TO THE GATE
2020-10-25 14:17:170063425814TAXI TO THE GATE
2020-10-25 14:18:170063425814TAXI TO THE GATE
2020-10-25 14:19:170063425814TAXI TO THE GATE
2020-10-25 14:20:170063425814TAXI TO THE GATE
2020-10-25 14:21:170063425814TAXI TO THE GATE
2020-10-25 14:22:170063425814TAXI TO THE GATE
2020-10-25 14:23:170063425814TAXI TO THE GATE
2020-10-25 14:24:170063425814TAXI TO THE GATE
2020-10-25 14:25:170063425814TAXI TO THE GATE
2020-10-25 14:26:170063425814TAXI TO THE GATE
2020-10-25 14:27:170063425814TAXI TO THE GATE
2020-10-25 14:28:170063425814TAXI TO THE GATE
2020-10-25 14:29:170063425814TAXI TO THE GATE
2020-10-25 14:30:170063425814TAXI TO THE GATE
2020-10-25 14:31:170063425814TAXI TO THE GATE